CheckWX is a tool to help pilots better visualize weather data.  It is not intended as a substitute for an official pre-flight weather briefing.

07:57:57 UTC

EGVN TAF
RAF Brize Norton Airport
Brize Norton, United Kingdom
TAF EGVN 200431Z 2006/2106 26010KT 9999 SCT030 PROB40 TEMPO 2007/2009 SCT012 PROB30 TEMPO 2011/2014 6000 SHRA

Jun-20@
06:00 UTC

Jun-20 @ 06:00 UTC

Jun-21@
06:00 UTC

Jun-21 @ 06:00 UTC

TAF EGVN 200431Z 2006/2106 26010KT 9999 SCT030
Wind
  • 260° at 10 KTS
Cloud Levels
  • Scattered at 3,000' AGL

Jun-20@
07:00 UTC

Jun-20 @ 07:00 UTC

Jun-20@
09:00 UTC

Jun-20 @ 09:00 UTC

PROB40 TEMPO 2007/2009 SCT012

Temporary - 40% Likelihood

Temporary - 40% Likelihood during this time.

Cloud Levels
  • Scattered at 1,200' AGL

Jun-20@
11:00 UTC

Jun-20 @ 11:00 UTC

Jun-20@
14:00 UTC

Jun-20 @ 14:00 UTC

PROB30 TEMPO 2011/2014 6000 SHRA

Temporary - 30% Likelihood

Temporary - 30% Likelihood during this time.

Conditions
Rain